Skiathos, Hellas

02:22:EEST den 02. september 2014 (GMT +0300)
Skopelos Greece | Change Station
CLOSE
Current Station
Personlig værstasjon
Location: Ελλάδα,
Høyde over havet: 259 ft
Nearby Weather Stations

H.o.h 259 ft 39.13 °N, 23.72 °E | Updated 6 seconds ago

Partly Cloudy
Delvis skyet
73.2 °F
Feels Like 75 °F
N
0.2
Vind Variabel Vind from SSV
Gusts 3.1 mph

I dag
High -- | Low -- °F
--% Chance of Precip.
I går
High -- | Low -- °F
Precip. -- tommer
6:55 AM 7:55 PM
Økende sigd, 45% visible
Lufttrykk 29.71 tommer
Sikt 6.2 eng. mil
Skyet Few 3000 ft
Varmeindeks 75 °F
Duggpunkt 64 °F
Fuktighet 72%
Regn 0.00 tommer
Snødybde Not available.
UV 0.0 av 12
Pollen Not available.
Luftkvalitet Not available.
Flu Activity Not available.
METAR LGBL 012250Z 25006KT 9999 FEW030 20/15 Q1006 NOSIG RMK FEW180

More Conditions Fewer Conditions

Lufttrykk 29.71 tommer
Sikt 6.2 eng. mil
Skyet Few 3000 ft
Varmeindeks 75 °F
Duggpunkt 64 °F
Fuktighet 72%
Regn 0.00 tommer
Snødybde Not available.
UV 0.0 av 12
Pollen Not available.
Luftkvalitet Not available.
Flu Activity Not available.
METAR LGBL 012250Z 25006KT 9999 FEW030 20/15 Q1006 NOSIG RMK FEW180

More Conditions Fewer Conditions

10-Day Weather Forecast

Almanac

Astronomi

Sep. 02, 2014 Oppgang Nedgang
Virkelig tid 06:55 EEST 19:55 EEST
Tussmørke 06:27 EEST 20:22 EEST
Nautisk skumring 05:55 EEST 20:55 EEST
Astronomisk skumring 05:21 EEST 21:29 EEST
Månen 14:18 EEST (9/2) Månen går ikke ned
Lengde av synlig lys 13h 55m
Dagens lengde
13h 00m
Tomorrow will be 2m 27s shorter.
Økende sigd, 45% of the Moon is Illuminated
Sep 1
Økende sigd
Sep 2
Første kvarter
Sep 8
Fullmåne
Sep 15
Siste kvarter
Sep 24
Ny

Gårsdagens min/max

Country Highs Country Lows

Community

WunderPhotos

Upload Photos

1,749,430 photos uploaded!

Nearby

Snødybde

Not available.

Earthquake Activity

By Distance Mag. Time & Date
No recent earthquake activity has been reported nearby.
Minimum magnitude displayed is 2.5.

Coastal Water Temperatures

Sted Temperatur
Ingen stasjoner raporterer

Nearby Weather Stations